Time;durP1;ratioP1;P1;durP2;ratioP2;P2;SDS_P1;SDS_P2;PMS_P1;PMS_P2;Temp;Humidity;BMP_temperature;BMP_pressure;BME280_temperature;BME280_humidity;BME280_pressure;Samples;Min_cycle;Max_cycle;Signal;HPM_P1;HPM_P2
2021/12/11 00:01:18;;;;;;;41.22;19.13;;;-3.10;99.90;;;;;;5034614;28;20049;-52
2021/12/11 00:03:49;;;;;;;50.03;21.30;;;-3.20;99.90;;;;;;5035690;28;20518;-52
2021/12/11 00:06:26;;;;;;;56.72;23.27;;;-3.20;99.90;;;;;;5032409;28;20041;-50
2021/12/11 00:08:56;;;;;;;61.30;24.95;;;-3.20;99.90;;;;;;5045420;28;20045;-51
2021/12/11 00:11:35;;;;;;;122.80;27.58;;;-3.30;99.90;;;;;;5034322;28;20063;-50
2021/12/11 00:14:04;;;;;;;72.82;25.27;;;-3.30;99.90;;;;;;5031444;28;20048;-53
2021/12/11 00:16:32;;;;;;;50.55;21.58;;;-3.30;99.90;;;;;;5029148;28;20404;-52
2021/12/11 00:19:12;;;;;;;48.20;20.77;;;-1.20;99.90;;;;;;5032238;28;20053;-53
2021/12/11 00:21:40;;;;;;;53.03;23.40;;;-3.30;99.90;;;;;;5032189;28;20029;-50
2021/12/11 00:24:15;;;;;;;56.25;22.92;;;-3.30;99.90;;;;;;5034478;28;20046;-53
2021/12/11 00:26:44;;;;;;;81.43;30.15;;;-3.30;99.90;;;;;;5028112;28;20034;-53
2021/12/11 00:29:13;;;;;;;68.13;27.63;;;-3.30;99.90;;;;;;5028924;28;20037;-53
2021/12/11 00:31:45;;;;;;;77.07;28.40;;;-3.30;99.90;;;;;;5029366;28;20049;-54
2021/12/11 00:34:12;;;;;;;;;;;-3.30;99.90;;;;;;5033821;28;20140;-52
2021/12/11 00:36:38;;;;;;;52.08;21.75;;;-3.30;99.90;;;;;;5033303;28;19924;-57
2021/12/11 00:39:13;;;;;;;45.65;20.73;;;-3.30;99.90;;;;;;5029833;28;20041;-51
2021/12/11 00:41:44;;;;;;;38.45;18.58;;;-3.30;99.90;;;;;;5014856;28;20045;-53
2021/12/11 00:44:09;;;;;;;47.58;20.70;;;-3.40;99.90;;;;;;5027904;28;20042;-52
2021/12/11 00:46:35;;;;;;;54.05;22.58;;;-3.40;99.90;;;;;;5028093;28;20037;-54
2021/12/11 00:49:13;;;;;;;67.65;24.75;;;-3.40;99.90;;;;;;5027515;28;20688;-51
2021/12/11 00:51:39;;;;;;;49.38;21.98;;;-3.40;99.90;;;;;;5031624;28;20041;-53
2021/12/11 00:54:06;;;;;;;39.28;19.13;;;-3.40;99.90;;;;;;5012809;28;20101;-54
2021/12/11 00:56:38;;;;;;;36.17;18.25;;;-3.40;99.90;;;;;;5050140;28;20095;-54
2021/12/11 00:59:08;;;;;;;35.90;18.88;;;-3.40;99.90;;;;;;5050991;28;20391;-52
2021/12/11 01:01:59;;;;;;;39.67;18.90;;;-3.40;99.90;;;;;;5038771;28;20042;-51
2021/12/11 01:04:41;;;;;;;39.35;19.20;;;-3.40;99.90;;;;;;5031303;28;20077;-51
2021/12/11 01:07:19;;;;;;;40.22;20.23;;;-3.50;99.90;;;;;;5038206;28;20115;-51
2021/12/11 01:10:01;;;;;;;45.92;21.52;;;-3.50;99.90;;;;;;5031816;28;20098;-52
2021/12/11 01:12:41;;;;;;;49.87;22.40;;;-3.60;99.90;;;;;;5043619;28;20047;-50
2021/12/11 01:15:19;;;;;;;42.28;21.75;;;-3.60;99.90;;;;;;5050958;28;20546;-51
2021/12/11 01:18:03;;;;;;;45.70;20.83;;;-3.60;99.90;;;;;;5051622;28;20108;-53
2021/12/11 01:20:44;;;;;;;45.30;22.92;;;-3.70;99.90;;;;;;5051180;28;20045;-50
2021/12/11 01:23:16;;;;;;;45.60;21.40;;;-3.70;99.90;;;;;;5051558;28;20111;-50
2021/12/11 01:25:43;;;;;;;47.45;22.42;;;-3.30;99.90;;;;;;5050918;28;20037;-50
2021/12/11 01:28:09;;;;;;;43.15;22.67;;;-3.70;99.90;;;;;;5050845;28;20036;-53
2021/12/11 01:30:39;;;;;;;43.13;22.17;;;-3.70;99.90;;;;;;5051231;28;20048;-52
2021/12/11 01:33:23;;;;;;;44.38;22.42;;;-3.70;99.90;;;;;;5048181;28;20502;-53
2021/12/11 01:35:49;;;;;;;49.92;23.77;;;-3.70;99.90;;;;;;5049342;28;20053;-50
2021/12/11 01:38:35;;;;;;;44.13;22.05;;;-3.70;99.90;;;;;;5031834;28;20037;-53
2021/12/11 01:41:10;;;;;;;39.13;19.90;;;-3.70;99.90;;;;;;5040635;28;20055;-51
2021/12/11 01:43:40;;;;;;;40.72;20.75;;;-3.80;99.90;;;;;;5038029;28;20055;-53
2021/12/11 01:46:07;;;;;;;42.80;20.80;;;-3.80;99.90;;;;;;5016528;28;20491;-53
2021/12/11 01:48:41;;;;;;;42.83;21.90;;;-3.80;99.90;;;;;;5031210;28;20033;-53
2021/12/11 01:51:23;;;;;;;40.92;21.10;;;-3.80;99.90;;;;;;5030877;28;20038;-50
2021/12/11 01:54:06;;;;;;;42.67;21.95;;;-3.80;99.90;;;;;;5030655;28;20052;-52
2021/12/11 01:56:33;;;;;;;48.40;21.65;;;-3.80;99.90;;;;;;5033071;28;20041;-54
2021/12/11 01:59:05;;;;;;;43.38;20.95;;;-3.90;99.90;;;;;;5046487;28;20065;-52
2021/12/11 02:01:41;;;;;;;42.75;22.40;;;-3.90;99.90;;;;;;5037848;28;20037;-51
2021/12/11 02:04:12;;;;;;;40.75;20.65;;;-3.90;99.90;;;;;;5030430;28;20050;-51
2021/12/11 02:06:41;;;;;;;42.35;21.08;;;-3.90;99.90;;;;;;5037177;28;20064;-53
2021/12/11 02:09:18;;;;;;;38.95;21.90;;;-3.90;99.90;;;;;;5047690;28;20041;-49
2021/12/11 02:11:46;;;;;;;41.97;21.88;;;-3.90;99.90;;;;;;5034789;28;20052;-53
2021/12/11 02:14:14;;;;;;;42.63;20.30;;;-3.90;99.90;;;;;;5030352;28;20049;-49
2021/12/11 02:16:46;;;;;;;47.08;21.80;;;-3.90;99.90;;;;;;5035448;28;20478;-50
2021/12/11 02:19:14;;;;;;;;;;;-3.90;99.90;;;;;;5046657;28;20056;-50
2021/12/11 02:22:03;;;;;;;37.50;17.58;;;-3.90;99.90;;;;;;5050699;28;19921;-52
2021/12/11 02:24:37;;;;;;;38.10;19.00;;;-3.90;99.90;;;;;;5041881;28;20128;-50
2021/12/11 02:27:14;;;;;;;38.58;19.25;;;-3.90;99.90;;;;;;5047792;28;20041;-50
2021/12/11 02:29:52;;;;;;;40.00;20.50;;;-4.00;99.90;;;;;;5050024;28;20049;-52
2021/12/11 02:32:30;;;;;;;41.30;19.75;;;-4.00;99.90;;;;;;5049476;28;20499;-53
2021/12/11 02:35:14;;;;;;;40.88;20.80;;;-4.00;99.90;;;;;;5049452;28;20853;-50
2021/12/11 02:37:52;;;;;;;40.00;19.98;;;-4.00;99.90;;;;;;5038232;28;20136;-50
2021/12/11 02:40:27;;;;;;;35.83;19.27;;;-4.00;99.90;;;;;;5033853;28;20049;-49
2021/12/11 02:43:11;;;;;;;45.80;22.23;;;-4.00;99.90;;;;;;5049696;28;20049;-52
2021/12/11 02:46:00;;;;;;;47.90;21.88;;;-4.00;99.90;;;;;;5049567;28;20051;-50
2021/12/11 02:48:37;;;;;;;39.20;19.80;;;-4.00;99.90;;;;;;5029813;28;20041;-50
2021/12/11 02:51:30;;;;;;;40.33;21.48;;;-4.00;99.90;;;;;;5029923;28;20538;-51
2021/12/11 02:54:10;;;;;;;43.50;20.48;;;-4.00;99.90;;;;;;5028001;28;20049;-52
2021/12/11 02:56:43;;;;;;;43.25;21.92;;;-4.00;99.90;;;;;;5034210;28;20052;-50
2021/12/11 02:59:13;;;;;;;50.92;21.88;;;-4.00;99.90;;;;;;5048871;28;20044;-49
2021/12/11 03:01:57;;;;;;;46.65;20.98;;;-2.60;99.90;;;;;;5035772;28;20049;-50
2021/12/11 03:04:35;;;;;;;44.05;21.95;;;-4.10;99.90;;;;;;5029366;28;20037;-51
2021/12/11 03:07:04;;;;;;;48.05;20.95;;;-4.10;99.90;;;;;;5035137;28;20045;-51
2021/12/11 03:09:33;;;;;;;44.90;22.65;;;-4.20;99.90;;;;;;5031675;28;20422;-50
2021/12/11 03:12:01;;;;;;;40.53;21.17;;;-4.20;99.90;;;;;;5031464;28;20038;-49
2021/12/11 03:14:28;;;;;;;37.35;20.25;;;-4.30;99.90;;;;;;5028981;28;20045;-48
2021/12/11 03:16:55;;;;;;;43.15;21.25;;;-4.20;99.90;;;;;;5027731;28;20045;-51
2021/12/11 03:19:24;;;;;;;42.72;20.00;;;-4.20;99.90;;;;;;5029069;28;20045;-50
2021/12/11 03:21:51;;;;;;;48.65;20.30;;;-4.30;99.90;;;;;;5028919;28;20128;-49
2021/12/11 03:24:17;;;;;;;45.83;21.27;;;-4.30;99.90;;;;;;5029027;28;20033;-48
2021/12/11 03:26:46;;;;;;;42.85;20.40;;;-4.40;99.90;;;;;;5014776;28;20044;-52
2021/12/11 03:29:12;;;;;;;41.08;21.52;;;-4.40;99.90;;;;;;5048378;28;20056;-50
2021/12/11 03:31:40;;;;;;;44.70;20.45;;;-4.40;99.90;;;;;;5048925;28;20044;-49
2021/12/11 03:34:11;;;;;;;43.75;21.33;;;-4.30;99.90;;;;;;5047937;28;20128;-49
2021/12/11 03:36:38;;;;;;;46.95;22.52;;;-4.30;99.90;;;;;;5035198;28;20060;-51
2021/12/11 03:39:17;;;;;;;47.03;21.75;;;-4.30;99.90;;;;;;5028615;28;20049;-49
2021/12/11 03:41:44;;;;;;;40.03;20.10;;;-4.30;99.90;;;;;;5038403;28;20045;-51
2021/12/11 03:44:11;;;;;;;39.38;19.88;;;-4.30;99.90;;;;;;5046121;28;20506;-49
2021/12/11 03:46:38;;;;;;;44.15;21.50;;;-4.40;99.90;;;;;;5044270;28;20045;-50
2021/12/11 03:49:09;;;;;;;43.25;21.08;;;-4.40;99.90;;;;;;5034741;28;20056;-51
2021/12/11 03:51:39;;;;;;;41.50;19.75;;;-4.40;99.90;;;;;;5048374;28;20441;-51
2021/12/11 03:54:08;;;;;;;42.45;21.35;;;-4.40;99.90;;;;;;5048203;28;20116;-52
2021/12/11 03:56:36;;;;;;;44.33;21.67;;;-4.60;99.90;;;;;;5046159;28;20077;-49
2021/12/11 03:59:09;;;;;;;43.30;21.42;;;-4.40;99.90;;;;;;5049016;28;20110;-50
2021/12/11 04:01:40;;;;;;;42.83;21.27;;;-4.40;99.90;;;;;;5038311;28;20503;-49
2021/12/11 04:04:15;;;;;;;47.50;21.75;;;-4.40;99.90;;;;;;5028896;28;20395;-49
2021/12/11 04:06:42;;;;;;;46.85;22.20;;;-4.40;99.90;;;;;;5034866;28;20375;-49
2021/12/11 04:09:11;;;;;;;43.65;21.67;;;-4.50;99.90;;;;;;5043449;28;20501;-49
2021/12/11 04:11:37;;;;;;;53.05;22.88;;;-4.40;99.90;;;;;;5033420;28;20108;-48
2021/12/11 04:14:09;;;;;;;46.30;24.13;;;-4.40;99.90;;;;;;5028253;28;20475;-51
2021/12/11 04:16:35;;;;;;;57.83;26.23;;;-4.40;99.90;;;;;;5028376;28;20045;-48
2021/12/11 04:19:03;;;;;;;60.42;24.95;;;-4.30;99.90;;;;;;5030510;28;20045;-48
2021/12/11 04:21:29;;;;;;;49.75;24.30;;;-4.30;99.90;;;;;;5027381;28;20045;-51
2021/12/11 04:23:55;;;;;;;46.97;24.13;;;-4.30;99.90;;;;;;5028611;28;20049;-47
2021/12/11 04:26:21;;;;;;;48.17;21.40;;;-4.30;99.90;;;;;;5036067;28;20068;-48
2021/12/11 04:28:48;;;;;;;50.30;23.42;;;-4.30;99.90;;;;;;5036446;28;20106;-48
2021/12/11 04:31:20;;;;;;;51.97;22.80;;;-4.40;99.90;;;;;;5028102;28;20171;-50
2021/12/11 04:33:50;;;;;;;49.03;21.25;;;-4.40;99.90;;;;;;5035906;28;20124;-49
2021/12/11 04:36:23;;;;;;;53.67;24.20;;;-4.40;99.90;;;;;;5033459;28;20049;-48
2021/12/11 04:38:51;;;;;;;61.88;25.38;;;-4.40;99.90;;;;;;5028053;28;20045;-48
2021/12/11 04:41:23;;;;;;;54.20;24.75;;;-4.50;99.90;;;;;;5034017;28;20049;-48
2021/12/11 04:43:52;;;;;;;52.10;23.58;;;-4.40;99.90;;;;;;5040081;28;20064;-48
2021/12/11 04:46:18;;;;;;;53.65;23.35;;;-4.50;99.90;;;;;;5032607;28;20041;-48
2021/12/11 04:51:28;;;;;;;51.97;23.77;;;-4.50;99.90;;;;;;5028456;28;20073;-49
2021/12/11 04:59:46;;;;;;;60.33;25.58;;;-4.50;99.90;;;;;;5033248;28;20131;-51
2021/12/11 05:11:02;;;;;;;63.78;28.27;;;-4.00;99.90;;;;;;5030678;28;20083;-51
2021/12/11 05:13:30;;;;;;;55.28;25.35;;;-4.10;99.90;;;;;;5046134;28;20553;-50
2021/12/11 05:16:00;;;;;;;67.60;28.40;;;-4.10;99.90;;;;;;5034960;28;20037;-49
2021/12/11 05:18:30;;;;;;;64.38;27.25;;;-4.10;99.90;;;;;;5035097;28;20039;-50
2021/12/11 05:21:00;;;;;;;65.97;29.70;;;-4.10;99.90;;;;;;5040837;28;20159;-51
2021/12/11 05:23:27;;;;;;;55.80;26.63;;;-4.10;99.90;;;;;;5038920;28;20041;-52
2021/12/11 05:25:53;;;;;;;57.35;26.85;;;-3.90;99.90;;;;;;5027393;28;20042;-48
2021/12/11 05:28:19;;;;;;;58.42;26.02;;;-3.90;99.90;;;;;;5043663;28;20052;-49
2021/12/11 05:30:49;;;;;;;59.83;26.75;;;-3.90;99.90;;;;;;5045456;28;20041;-50
2021/12/11 05:33:16;;;;;;;58.03;25.98;;;-3.90;99.90;;;;;;5031810;28;20468;-52
2021/12/11 05:35:43;;;;;;;53.95;26.10;;;-3.80;99.90;;;;;;5032014;28;20049;-50
2021/12/11 05:38:11;;;;;;;55.63;25.67;;;-3.90;99.90;;;;;;5036120;28;20053;-51
2021/12/11 05:40:41;;;;;;;55.03;26.60;;;-4.00;99.90;;;;;;5033035;28;20041;-49
2021/12/11 05:43:07;;;;;;;55.10;24.83;;;-4.10;99.90;;;;;;5049843;28;20052;-51
2021/12/11 05:45:33;;;;;;;52.88;24.60;;;-4.10;99.90;;;;;;5050611;28;20044;-48
2021/12/11 05:47:59;;;;;;;56.70;23.88;;;-4.20;99.90;;;;;;5033646;28;20821;-51
2021/12/11 05:50:36;;;;;;;55.08;24.70;;;-4.20;99.90;;;;;;5031263;28;20447;-49
2021/12/11 05:53:04;;;;;;;56.35;25.42;;;-4.30;99.90;;;;;;5031025;28;20115;-50
2021/12/11 05:55:31;;;;;;;49.63;23.02;;;-4.40;99.90;;;;;;5034533;28;20530;-49
2021/12/11 05:57:58;;;;;;;50.35;23.70;;;-4.40;99.90;;;;;;5050718;28;20070;-52
2021/12/11 06:00:35;;;;;;;53.40;24.08;;;-4.40;99.90;;;;;;5050686;28;20116;-48
2021/12/11 06:03:03;;;;;;;50.75;23.05;;;-4.40;99.90;;;;;;5031093;28;20087;-48
2021/12/11 06:05:29;;;;;;;48.10;23.70;;;-4.50;99.90;;;;;;5053173;28;20164;-53
2021/12/11 06:07:56;;;;;;;53.80;25.25;;;-4.50;99.90;;;;;;5036800;28;20056;-50
2021/12/11 06:10:23;;;;;;;57.13;25.40;;;-4.50;99.90;;;;;;5034430;28;20045;-49
2021/12/11 06:12:51;;;;;;;54.50;26.00;;;-4.50;99.90;;;;;;5034153;28;20381;-51
2021/12/11 06:15:17;;;;;;;55.50;26.90;;;-4.50;99.90;;;;;;5050863;28;20524;-52
2021/12/11 06:17:44;;;;;;;57.20;27.10;;;-4.50;99.90;;;;;;5050211;28;20044;-49
2021/12/11 06:20:13;;;;;;;61.58;25.75;;;-4.50;99.90;;;;;;5030618;28;20068;-49
2021/12/11 06:22:39;;;;;;;55.13;26.45;;;-4.40;99.90;;;;;;5030400;28;20541;-53
2021/12/11 06:25:13;;;;;;;60.22;27.40;;;-4.50;99.90;;;;;;5029016;28;20045;-53
2021/12/11 06:27:40;;;;;;;64.47;29.25;;;-4.50;99.90;;;;;;5034391;28;20356;-50
2021/12/11 06:30:07;;;;;;;60.70;26.90;;;-4.50;99.90;;;;;;5037453;28;20045;-52
2021/12/11 06:32:33;;;;;;;63.35;26.85;;;-4.40;99.90;;;;;;5030304;28;20124;-50
2021/12/11 06:35:05;;;;;;;60.85;28.88;;;-4.30;99.90;;;;;;5029516;28;20065;-52
2021/12/11 06:37:31;;;;;;;52.13;26.77;;;-4.30;99.90;;;;;;5036460;28;20533;-52
2021/12/11 06:39:56;;;;;;;58.92;26.80;;;-4.30;99.90;;;;;;5048117;28;20048;-52
2021/12/11 06:42:22;;;;;;;63.55;27.85;;;-4.30;99.90;;;;;;5049546;28;20041;-50
2021/12/11 06:44:48;;;;;;;63.75;27.48;;;-4.40;99.90;;;;;;5049428;28;20126;-50
2021/12/11 06:47:15;;;;;;;68.35;30.23;;;-4.40;99.90;;;;;;5049737;28;20053;-50
2021/12/11 06:49:43;;;;;;;77.53;31.88;;;-4.40;99.90;;;;;;5049434;28;20053;-47
2021/12/11 06:52:13;;;;;;;69.22;29.98;;;-4.30;99.90;;;;;;5046537;28;20051;-48
2021/12/11 06:54:39;;;;;;;58.13;27.13;;;-4.30;99.90;;;;;;5041735;28;20088;-50
2021/12/11 06:57:05;;;;;;;64.57;29.45;;;-4.30;99.90;;;;;;5049520;28;20072;-49
2021/12/11 06:59:31;;;;;;;54.40;26.60;;;-4.30;99.90;;;;;;5034941;28;20049;-47
2021/12/11 07:01:58;;;;;;;55.30;27.67;;;-4.30;99.90;;;;;;5030182;28;20045;-52
2021/12/11 07:04:23;;;;;;;59.42;28.13;;;-4.30;99.90;;;;;;5029842;28;20044;-48
2021/12/11 07:06:52;;;;;;;60.30;26.80;;;-4.30;99.90;;;;;;5035812;28;20045;-47
2021/12/11 07:09:19;;;;;;;57.92;25.23;;;-4.30;99.90;;;;;;5029645;28;20450;-47
2021/12/11 07:11:45;;;;;;;59.60;27.08;;;-4.20;99.90;;;;;;5037740;28;20045;-52
2021/12/11 07:14:16;;;;;;;55.15;26.55;;;-4.30;99.90;;;;;;5049332;28;20483;-48
2021/12/11 07:16:42;;;;;;;55.03;25.02;;;-4.30;99.90;;;;;;5049231;28;20461;-48
2021/12/11 07:19:09;;;;;;;56.88;25.58;;;-4.30;99.90;;;;;;5045953;28;20042;-47
2021/12/11 07:21:37;;;;;;;56.50;24.65;;;-4.30;99.90;;;;;;5029014;28;20647;-49
2021/12/11 07:24:07;;;;;;;52.92;24.65;;;-4.30;99.90;;;;;;5029189;28;20049;-47
2021/12/11 07:26:34;;;;;;;63.20;27.58;;;-4.30;99.90;;;;;;5031551;28;20042;-47
2021/12/11 07:29:14;;;;;;;62.15;26.95;;;-4.30;99.90;;;;;;5028412;28;20056;-50
2021/12/11 07:31:43;;;;;;;70.57;29.15;;;-4.40;99.90;;;;;;5029198;28;20041;-48
2021/12/11 07:34:09;;;;;;;61.13;27.17;;;-4.40;99.90;;;;;;5028946;28;20061;-48
2021/12/11 07:36:36;;;;;;;62.20;28.35;;;-4.40;99.90;;;;;;5037841;28;20427;-51
2021/12/11 07:39:06;;;;;;;62.05;28.55;;;-4.40;99.90;;;;;;5028715;28;20056;-49
2021/12/11 07:41:31;;;;;;;66.40;30.02;;;-4.40;99.90;;;;;;5044219;28;20041;-50
2021/12/11 07:43:58;;;;;;;61.97;28.63;;;-4.40;99.90;;;;;;5048143;28;20045;-49
2021/12/11 07:46:27;;;;;;;60.55;27.48;;;-4.40;99.90;;;;;;5048532;28;20660;-52
2021/12/11 07:48:53;;;;;;;67.35;29.27;;;-4.40;99.90;;;;;;5048256;28;20045;-48
2021/12/11 07:51:21;;;;;;;59.05;28.38;;;-4.40;99.90;;;;;;5048559;28;20179;-49
2021/12/11 07:53:48;;;;;;;64.32;30.85;;;-4.40;99.90;;;;;;5047826;28;20049;-49
2021/12/11 07:56:17;;;;;;;70.07;32.65;;;-4.40;99.90;;;;;;5041897;28;20051;-49
2021/12/11 07:58:43;;;;;;;66.18;29.60;;;-4.20;99.90;;;;;;5048104;28;20403;-49
2021/12/11 08:01:08;;;;;;;68.68;31.55;;;-4.40;99.90;;;;;;5028847;28;20045;-49
2021/12/11 08:03:35;;;;;;;67.22;30.95;;;-4.30;99.90;;;;;;5035606;28;20144;-48
2021/12/11 08:06:01;;;;;;;65.57;30.00;;;-4.20;99.90;;;;;;5044384;28;20057;-51
2021/12/11 08:08:27;;;;;;;70.65;31.67;;;-4.10;99.90;;;;;;5047023;28;20045;-49
2021/12/11 08:10:57;;;;;;;65.22;28.95;;;-4.10;99.90;;;;;;5047025;28;20360;-49
2021/12/11 08:13:24;;;;;;;63.30;29.02;;;-4.00;99.90;;;;;;5046254;28;20466;-52
2021/12/11 08:15:50;;;;;;;72.88;30.45;;;-4.00;99.90;;;;;;5041529;28;20041;-52
2021/12/11 08:18:19;;;;;;;69.40;30.13;;;-2.40;99.90;;;;;;5044368;28;20044;-48
2021/12/11 08:20:46;;;;;;;71.88;31.90;;;-3.80;99.90;;;;;;5045341;28;20041;-49
2021/12/11 08:23:13;;;;;;;73.60;33.20;;;-3.80;99.90;;;;;;5042619;28;20045;-49
2021/12/11 08:25:42;;;;;;;83.47;35.90;;;-3.80;99.90;;;;;;5042244;28;20052;-49
2021/12/11 08:28:10;;;;;;;79.20;34.88;;;-3.80;99.90;;;;;;5039780;28;20038;-50
2021/12/11 08:30:39;;;;;;;78.97;33.35;;;-3.80;99.90;;;;;;5043269;28;20449;-48
2021/12/11 08:33:05;;;;;;;87.45;37.92;;;-3.70;99.90;;;;;;5042529;28;20065;-48
2021/12/11 08:35:32;;;;;;;85.53;35.47;;;-3.60;99.90;;;;;;5045280;28;20048;-47
2021/12/11 08:37:58;;;;;;;77.38;36.67;;;-3.60;99.90;;;;;;5039945;28;20064;-51
2021/12/11 08:40:46;;;;;;;86.95;36.63;;;-3.50;99.90;;;;;;5041907;28;20072;-47
2021/12/11 08:43:15;;;;;;;90.72;38.53;;;-3.40;99.90;;;;;;5036193;28;20073;-49
2021/12/11 08:45:57;;;;;;;82.95;36.38;;;-3.30;99.90;;;;;;5036849;28;20550;-51
2021/12/11 08:48:25;;;;;;;83.00;36.85;;;-3.30;99.90;;;;;;5042420;28;20056;-51
2021/12/11 08:50:55;;;;;;;77.68;36.42;;;-3.20;99.90;;;;;;5047955;28;20045;-48
2021/12/11 08:53:21;;;;;;;89.45;39.25;;;-3.10;99.90;;;;;;5047922;28;20487;-49
2021/12/11 08:55:50;;;;;;;91.75;40.05;;;-3.10;99.90;;;;;;5046303;28;20049;-47
2021/12/11 08:58:18;;;;;;;86.85;40.20;;;-3.00;99.90;;;;;;5045936;28;20052;-48
2021/12/11 09:00:50;;;;;;;84.10;39.95;;;-2.90;99.90;;;;;;5042796;28;20071;-50
2021/12/11 09:03:22;;;;;;;87.95;38.63;;;-2.90;99.90;;;;;;5040984;28;20068;-51
2021/12/11 09:06:06;;;;;;;86.22;38.88;;;-2.80;99.90;;;;;;5043948;28;20402;-49
2021/12/11 09:08:47;;;;;;;93.88;38.67;;;-2.80;99.90;;;;;;5044907;28;20582;-52
2021/12/11 09:11:17;;;;;;;91.15;40.42;;;-2.70;99.90;;;;;;5049416;28;20041;-48
2021/12/11 09:13:47;;;;;;;89.88;41.17;;;-2.70;99.90;;;;;;5046766;28;20041;-51
2021/12/11 09:16:16;;;;;;;92.05;40.15;;;-2.60;99.90;;;;;;5045417;28;20037;-48
2021/12/11 09:18:47;;;;;;;106.03;42.85;;;-1.30;99.90;;;;;;5048732;28;20044;-49
2021/12/11 09:21:39;;;;;;;112.32;45.17;;;-2.30;99.90;;;;;;5045043;28;20052;-48
2021/12/11 09:24:14;;;;;;;116.18;45.70;;;-2.00;99.90;;;;;;5047831;28;20504;-50
2021/12/11 09:26:48;;;;;;;118.97;49.25;;;-1.50;99.90;;;;;;5045203;28;20034;-48
2021/12/11 09:29:14;;;;;;;115.00;46.28;;;-1.30;99.90;;;;;;5043477;28;20387;-47
2021/12/11 09:32:06;;;;;;;120.03;48.15;;;-1.30;99.90;;;;;;5034203;28;20053;-54
2021/12/11 09:34:46;;;;;;;111.90;45.13;;;-1.20;99.90;;;;;;5022320;28;20380;-53
2021/12/11 09:37:12;;;;;;;113.03;46.28;;;-1.30;99.90;;;;;;5039497;28;20280;-52
2021/12/11 09:39:41;;;;;;;124.80;47.10;;;-1.40;99.90;;;;;;5030533;28;20080;-50
2021/12/11 09:42:07;;;;;;;116.78;48.65;;;-1.40;99.90;;;;;;5051210;28;20060;-51
2021/12/11 09:45:19;;;;;;;119.55;48.95;;;-1.40;99.90;;;;;;5040184;28;20065;-46
2021/12/11 09:47:51;;;;;;;134.30;47.58;;;-1.40;99.90;;;;;;5041279;28;20116;-55
2021/12/11 09:50:35;;;;;;;124.93;48.42;;;-1.40;99.90;;;;;;5038540;28;20041;-49
2021/12/11 09:53:02;;;;;;;129.05;49.10;;;-1.50;99.90;;;;;;5036243;28;20120;-48
2021/12/11 09:55:33;;;;;;;120.95;48.47;;;-1.20;99.90;;;;;;5041859;28;20047;-48
2021/12/11 09:58:04;;;;;;;145.93;49.85;;;-1.20;99.90;;;;;;5039604;28;20033;-50
2021/12/11 10:00:51;;;;;;;130.13;50.15;;;-1.10;99.90;;;;;;5032718;28;20033;-55
2021/12/11 10:03:22;;;;;;;134.52;55.70;;;-1.00;99.90;;;;;;5036398;28;20120;-46
2021/12/11 10:06:00;;;;;;;151.88;54.13;;;-0.90;99.90;;;;;;5031915;28;20064;-54
2021/12/11 10:08:37;;;;;;;142.32;53.45;;;-0.80;99.90;;;;;;5032587;28;20036;-60
2021/12/11 10:11:18;;;;;;;141.10;55.08;;;-0.80;99.90;;;;;;5041157;28;20045;-61
2021/12/11 10:14:00;;;;;;;145.38;55.58;;;-0.70;99.90;;;;;;5023133;28;20044;-61
2021/12/11 10:16:30;;;;;;;;;;;0.60;99.90;;;;;;5042332;28;20048;-61
2021/12/11 10:18:56;;;;;;;149.65;57.00;;;-0.70;99.90;;;;;;5041175;28;19919;-62
2021/12/11 10:21:37;;;;;;;176.82;62.13;;;-0.60;99.90;;;;;;5041458;28;20045;-62
2021/12/11 10:24:08;;;;;;;177.25;66.68;;;-0.50;99.90;;;;;;5039723;28;20040;-61
2021/12/11 10:26:34;;;;;;;183.05;63.85;;;-0.30;99.90;;;;;;5041247;28;20061;-62
2021/12/11 10:29:04;;;;;;;180.27;65.90;;;-0.30;99.90;;;;;;5042680;28;20043;-62
2021/12/11 10:31:38;;;;;;;174.00;64.65;;;-0.20;99.90;;;;;;5023547;28;20043;-48
2021/12/11 10:34:09;;;;;;;159.25;64.40;;;-0.10;99.90;;;;;;5036163;28;20579;-55
2021/12/11 10:36:49;;;;;;;170.18;63.38;;;-0.10;99.90;;;;;;5040393;28;20045;-60
2021/12/11 10:39:16;;;;;;;188.35;69.07;;;-0.10;99.90;;;;;;5039924;28;20043;-60
2021/12/11 10:41:42;;;;;;;151.93;62.05;;;-0.10;99.90;;;;;;5036930;28;20044;-58
2021/12/11 10:44:19;;;;;;;145.95;63.00;;;-0.10;99.90;;;;;;5038580;28;20048;-61
2021/12/11 10:46:57;;;;;;;162.15;65.78;;;1.00;99.90;;;;;;5039519;28;20041;-60
2021/12/11 10:49:23;;;;;;;138.05;59.53;;;0.00;99.90;;;;;;5041886;28;20390;-60
2021/12/11 10:51:56;;;;;;;172.65;66.18;;;-0.10;99.90;;;;;;5039440;28;20122;-62
2021/12/11 10:54:21;;;;;;;;;;;-0.10;99.90;;;;;;5042697;28;20429;-57
2021/12/11 10:56:48;;;;;;;204.88;67.45;;;-0.10;99.90;;;;;;5038432;28;19999;-59
2021/12/11 10:59:19;;;;;;;191.40;65.78;;;0.00;99.90;;;;;;5036791;28;20025;-57
2021/12/11 11:01:51;;;;;;;154.75;58.97;;;0.00;99.90;;;;;;5037660;28;20041;-56
2021/12/11 11:04:21;;;;;;;144.27;58.90;;;0.00;99.90;;;;;;5039573;28;20492;-54
2021/12/11 11:06:47;;;;;;;156.55;61.60;;;0.00;99.90;;;;;;5039165;28;20033;-50
2021/12/11 11:09:15;;;;;;;201.63;70.82;;;0.00;99.90;;;;;;5030001;28;20544;-46
2021/12/11 11:11:41;;;;;;;127.13;56.65;;;0.00;99.90;;;;;;5039853;28;20112;-47
2021/12/11 11:14:09;;;;;;;145.57;63.78;;;0.00;99.90;;;;;;5038778;28;20044;-53
2021/12/11 11:16:38;;;;;;;159.18;63.25;;;0.00;99.90;;;;;;5037164;28;20040;-47
2021/12/11 11:19:04;;;;;;;147.30;59.80;;;0.00;99.90;;;;;;5041328;28;20062;-49
2021/12/11 11:21:37;;;;;;;158.40;66.50;;;0.00;99.90;;;;;;5039431;28;20112;-59
2021/12/11 11:24:05;;;;;;;165.40;64.70;;;0.00;99.90;;;;;;5035961;28;20132;-57
2021/12/11 11:26:35;;;;;;;172.32;67.38;;;0.00;99.90;;;;;;5035030;28;20037;-62
2021/12/11 11:29:03;;;;;;;179.80;70.28;;;0.00;99.90;;;;;;5037475;28;20498;-66
2021/12/11 11:31:34;;;;;;;158.57;66.78;;;0.00;99.90;;;;;;5022412;28;23325;-59
2021/12/11 11:34:03;;;;;;;154.23;65.25;;;0.10;99.90;;;;;;5034267;28;20494;-58
2021/12/11 11:36:30;;;;;;;165.07;65.55;;;0.00;99.90;;;;;;5033471;28;20515;-62
2021/12/11 11:39:00;;;;;;;144.60;61.78;;;-2.10;99.90;;;;;;5038560;28;20049;-61
2021/12/11 11:41:36;;;;;;;138.75;59.80;;;0.10;99.90;;;;;;5037208;28;20736;-49
2021/12/11 11:44:04;;;;;;;141.88;62.47;;;0.20;99.90;;;;;;5033673;28;20360;-47
2021/12/11 11:46:31;;;;;;;166.27;68.45;;;0.20;99.90;;;;;;5037263;28;20577;-48
2021/12/11 11:49:00;;;;;;;155.63;61.33;;;0.20;99.90;;;;;;5034278;28;20044;-48
2021/12/11 11:51:37;;;;;;;116.53;55.83;;;0.20;99.90;;;;;;5036511;28;20040;-47
2021/12/11 11:54:05;;;;;;;139.57;58.80;;;0.30;99.90;;;;;;5032616;28;20045;-48
2021/12/11 11:56:35;;;;;;;143.40;59.97;;;0.30;99.90;;;;;;5038354;28;20494;-55
2021/12/11 11:59:03;;;;;;;147.07;62.78;;;0.30;99.90;;;;;;5040522;28;20702;-62
2021/12/11 12:01:41;;;;;;;133.52;59.65;;;0.30;99.90;;;;;;5031405;28;20501;-62
2021/12/11 12:04:11;;;;;;;151.07;63.95;;;0.50;99.90;;;;;;5038862;28;20144;-61
2021/12/11 12:06:38;;;;;;;135.50;59.15;;;0.60;99.90;;;;;;5034461;28;20741;-58
2021/12/11 12:09:07;;;;;;;143.18;60.88;;;0.70;99.90;;;;;;5034744;28;20041;-55
2021/12/11 12:11:34;;;;;;;153.02;63.78;;;0.80;99.90;;;;;;5036367;28;20029;-60
2021/12/11 12:14:04;;;;;;;134.73;58.97;;;0.80;99.90;;;;;;5037521;28;20112;-61
2021/12/11 12:16:32;;;;;;;155.10;62.35;;;0.80;99.90;;;;;;5037062;28;20033;-61
2021/12/11 12:18:59;;;;;;;137.43;60.15;;;0.80;99.90;;;;;;5036526;28;20039;-58
2021/12/11 12:21:25;;;;;;;153.68;65.30;;;0.90;99.90;;;;;;5035146;28;20053;-58
2021/12/11 12:23:51;;;;;;;147.40;60.67;;;1.10;99.90;;;;;;5036204;28;20090;-58
2021/12/11 12:26:22;;;;;;;144.65;65.72;;;1.20;99.90;;;;;;5048211;28;20041;-55
2021/12/11 12:28:48;;;;;;;142.68;64.15;;;1.30;99.90;;;;;;5048730;28;20147;-55
2021/12/11 12:31:19;;;;;;;153.48;65.35;;;1.30;99.90;;;;;;5047844;28;20660;-54
2021/12/11 12:33:46;;;;;;;143.38;62.03;;;1.40;99.90;;;;;;5048750;28;20813;-54
2021/12/11 12:36:13;;;;;;;139.40;58.05;;;1.50;99.90;;;;;;5048633;28;20053;-54
2021/12/11 12:38:42;;;;;;;148.05;60.10;;;1.60;99.90;;;;;;5048560;28;20671;-55
2021/12/11 12:42:03;;;;;;;134.82;54.05;;;1.70;99.90;;;;;;5051886;28;20040;-55
2021/12/11 12:44:32;;;;;;;117.78;49.40;;;1.90;99.90;;;;;;4970803;28;20374;-55
2021/12/11 12:47:14;;;;;;;124.47;51.00;;;1.90;99.90;;;;;;5041664;28;20052;-56
2021/12/11 12:49:42;;;;;;;;;;;1.90;99.90;;;;;;5053064;28;20049;-57
2021/12/11 12:52:13;;;;;;;138.10;53.20;;;1.90;99.90;;;;;;5052424;28;20389;-56
2021/12/11 12:54:39;;;;;;;125.97;51.00;;;2.00;99.90;;;;;;5052308;28;20495;-57
2021/12/11 12:57:22;;;;;;;115.55;49.13;;;2.00;99.90;;;;;;5052282;28;20314;-57
2021/12/11 12:59:50;;;;;;;;;;;2.00;99.90;;;;;;5052560;28;20049;-57
2021/12/11 13:02:21;;;;;;;112.43;47.50;;;2.00;99.90;;;;;;5052155;28;19925;-57
2021/12/11 13:04:59;;;;;;;119.15;48.45;;;2.00;99.90;;;;;;5052151;28;20041;-56